Time;durP1;ratioP1;P1;durP2;ratioP2;P2;SDS_P1;SDS_P2;PMS_P1;PMS_P2;Temp;Humidity;BMP_temperature;BMP_pressure;BME280_temperature;BME280_humidity;BME280_pressure;Samples;Min_cycle;Max_cycle;Signal;HPM_P1;HPM_P2
2022/12/30 00:00:34;;;;;;;22.00;12.33;;;;;;;5.32;82.09;100063.27;1633182;87;20157;-78
2022/12/30 00:03:03;;;;;;;20.57;11.90;;;;;;;5.33;82.07;100061.09;1639304;85;21078;-81
2022/12/30 00:05:30;;;;;;;23.57;12.27;;;;;;;5.35;82.12;100062.78;1633105;85;21154;-80
2022/12/30 00:07:57;;;;;;;21.10;12.70;;;;;;;5.39;82.20;100060.96;1633264;85;21145;-78
2022/12/30 00:10:24;;;;;;;20.43;11.83;;;;;;;5.43;82.18;100074.32;1633238;87;21093;-79
2022/12/30 00:35:16;;;;;;;18.87;10.73;;;;;;;5.58;82.32;100099.13;1633326;85;20981;-77
2022/12/30 00:37:44;;;;;;;21.40;12.63;;;;;;;5.63;82.30;100105.53;1633153;85;21503;-78
2022/12/30 00:40:12;;;;;;;16.10;10.23;;;;;;;5.61;82.24;100097.75;1633063;85;21053;-78
2022/12/30 00:45:25;;;;;;;17.43;11.10;;;;;;;5.63;82.15;100101.63;1633350;85;21145;-77
2022/12/30 00:47:53;;;;;;;20.53;11.73;;;;;;;5.62;82.15;100102.05;1633066;85;21057;-78
2022/12/30 00:56:10;;;;;;;19.10;10.43;;;;;;;5.56;82.07;100093.94;1633574;87;21082;-78
2022/12/30 00:58:37;;;;;;;19.30;11.00;;;;;;;5.53;82.05;100100.51;1631562;87;21386;-78
2022/12/30 01:01:05;;;;;;;20.40;11.50;;;;;;;5.48;82.03;100106.24;1638395;85;21046;-78
2022/12/30 01:03:32;;;;;;;22.70;11.97;;;;;;;5.45;82.05;100124.95;1633073;85;21010;-83
2022/12/30 01:06:07;;;;;;;19.47;12.10;;;;;;;5.41;82.12;100120.72;1633376;85;21054;-78
2022/12/30 01:08:35;;;;;;;23.23;12.57;;;;;;;5.37;82.23;100130.30;1635881;85;21132;-78
2022/12/30 01:11:08;;;;;;;17.67;11.60;;;;;;;5.39;82.42;100131.13;1642967;85;21122;-78
2022/12/30 01:13:36;;;;;;;18.60;11.80;;;;;;;5.40;82.54;100121.59;1633125;85;21030;-78
2022/12/30 01:16:16;;;;;;;20.67;11.63;;;;;;;5.40;82.55;100131.53;1633283;87;21069;-78
2022/12/30 01:18:43;;;;;;;19.07;11.08;;;;;;;5.40;82.56;100126.79;1633218;87;21070;-82
2022/12/30 01:21:11;;;;;;;18.97;11.80;;;;;;;5.39;82.57;100136.78;1633435;87;21584;-78
2022/12/30 01:23:38;;;;;;;17.23;11.37;;;;;;;5.37;82.55;100147.20;1633134;87;21198;-78
2022/12/30 01:26:07;;;;;;;20.10;11.63;;;;;;;5.36;82.59;100154.59;1634988;86;21539;-78
2022/12/30 01:28:36;;;;;;;20.33;12.13;;;;;;;5.36;82.67;100151.55;1633125;85;21018;-78
2022/12/30 01:31:10;;;;;;;19.07;11.70;;;;;;;5.35;82.67;100143.80;1633336;85;21023;-78
2022/12/30 01:33:38;;;;;;;19.97;12.07;;;;;;;5.34;82.71;100156.36;1633229;87;21519;-78
2022/12/30 01:36:06;;;;;;;21.10;11.57;;;;;;;5.31;82.66;100152.52;1633166;85;21145;-78
2022/12/30 01:38:33;;;;;;;18.07;11.40;;;;;;;5.28;82.69;100157.33;1633140;87;21583;-78
2022/12/30 01:41:00;;;;;;;19.33;11.20;;;;;;;5.27;82.76;100162.58;1637656;85;21122;-77
2022/12/30 01:43:49;;;;;;;18.93;11.70;;;;;;;5.23;82.73;100157.86;1641554;86;21106;-78
2022/12/30 01:46:22;;;;;;;17.87;11.97;;;;;;;5.20;82.74;100154.47;1633422;85;21045;-77
2022/12/30 01:48:51;;;;;;;20.10;11.10;;;;;;;5.16;82.78;100165.82;1633252;85;21223;-77
2022/12/30 01:51:28;;;;;;;18.37;11.77;;;;;;;5.13;82.90;100168.88;1633161;87;21141;-77
2022/12/30 01:53:59;;;;;;;19.77;11.53;;;;;;;5.10;82.94;100171.98;1633364;87;21179;-77
2022/12/30 01:56:31;;;;;;;18.30;11.00;;;;;;;5.08;83.12;100179.80;1633305;85;21512;-78
2022/12/30 01:59:09;;;;;;;17.07;10.47;;;;;;;5.08;83.24;100166.80;1636957;85;21606;-78
2022/12/30 02:01:37;;;;;;;19.63;10.50;;;;;;;5.09;83.34;100168.50;1633097;87;21304;-80
2022/12/30 02:04:08;;;;;;;20.53;11.30;;;;;;;5.10;83.40;100165.05;1633327;85;21079;-77
2022/12/30 02:06:57;;;;;;;17.90;10.40;;;;;;;5.09;83.41;100177.59;1633272;85;21026;-82
2022/12/30 02:09:27;;;;;;;18.43;10.93;;;;;;;5.09;83.46;100185.84;1614144;86;20993;-78
2022/12/30 02:11:56;;;;;;;19.43;10.83;;;;;;;5.09;83.47;100187.14;1633442;85;21019;-77
2022/12/30 02:14:26;;;;;;;18.93;10.37;;;;;;;5.07;83.54;100177.21;1633253;87;21175;-83
2022/12/30 02:17:18;;;;;;;19.67;10.03;;;;;;;5.07;83.67;100176.80;1642230;85;21543;-78
2022/12/30 02:20:13;;;;;;;18.13;10.73;;;;;;;5.08;83.75;100178.50;1632728;85;21041;-78
2022/12/30 02:23:06;;;;;;;15.00;10.17;;;;;;;5.08;83.73;100186.29;1633293;87;21097;-78
2022/12/30 02:25:47;;;;;;;18.13;10.80;;;;;;;5.06;83.75;100184.16;1633317;87;21062;-78
2022/12/30 02:28:35;;;;;;;15.80;10.27;;;;;;;5.07;83.85;100183.28;1632110;85;21331;-78
2022/12/30 02:31:52;;;;;;;17.57;10.60;;;;;;;5.07;83.96;100170.72;1632038;87;21040;-79
2022/12/30 02:34:53;;;;;;;17.47;10.33;;;;;;;5.09;84.03;100185.84;1632558;86;21467;-80
2022/12/30 02:37:38;;;;;;;16.07;9.60;;;;;;;5.08;84.03;100186.29;1633499;85;21382;-78
2022/12/30 02:40:22;;;;;;;18.73;11.03;;;;;;;5.09;84.16;100188.44;1633153;85;21595;-78
2022/12/30 02:45:51;;;;;;;16.23;10.43;;;;;;;5.09;84.19;100181.94;1629811;85;21425;-79
2022/12/30 02:48:25;;;;;;;16.47;9.90;;;;;;;5.10;84.23;100178.48;1606451;87;21153;-78
2022/12/30 02:53:35;;;;;;;14.23;8.73;;;;;;;5.12;84.43;100181.88;1629142;86;21415;-80
2022/12/30 02:56:03;;;;;;;14.50;8.60;;;;;;;5.16;84.64;100182.26;1632871;87;21607;-78
2022/12/30 02:58:34;;;;;;;14.03;8.63;;;;;;;5.23;84.89;100183.84;1633092;85;20999;-78
2022/12/30 03:04:28;;;;;;;14.33;8.33;;;;;;;5.34;85.13;100187.09;1606153;85;21051;-78
2022/12/30 03:07:46;;;;;;;14.80;9.00;;;;;;;5.40;84.99;100182.22;1633016;85;21149;-78
2022/12/30 03:13:26;;;;;;;15.37;9.20;;;;;;;5.45;85.06;100190.79;1633215;87;21074;-78
2022/12/30 03:16:34;;;;;;;16.73;9.17;;;;;;;5.49;85.23;100200.26;1633040;86;21061;-78
2022/12/30 03:19:05;;;;;;;15.27;8.23;;;;;;;5.55;85.27;100197.98;1633220;87;21085;-78
2022/12/30 03:21:37;;;;;;;12.97;8.13;;;;;;;5.59;85.32;100200.92;1632298;86;21177;-81
2022/12/30 03:27:05;;;;;;;14.60;8.75;;;;;;;5.64;85.29;100209.94;1633418;87;21473;-78
2022/12/30 03:30:01;;;;;;;13.63;7.90;;;;;;;5.64;85.30;100215.14;1633465;85;21083;-81
2022/12/30 03:32:29;;;;;;;12.43;8.27;;;;;;;5.65;85.36;100219.44;1633778;86;21074;-78
2022/12/30 03:34:56;;;;;;;13.43;8.50;;;;;;;5.67;85.39;100218.98;1633320;85;21100;-77
2022/12/30 03:37:37;;;;;;;13.33;8.40;;;;;;;5.68;85.37;100227.17;1633150;85;21524;-77
2022/12/30 03:40:21;;;;;;;15.80;8.73;;;;;;;5.65;85.29;100230.69;1636929;85;21065;-78
2022/12/30 03:42:51;;;;;;;12.70;8.10;;;;;;;5.65;85.28;100230.69;1633139;85;21054;-78
2022/12/30 03:45:19;;;;;;;11.75;7.62;;;;;;;5.64;85.31;100234.19;1633232;85;21066;-78
2022/12/30 03:47:46;;;;;;;15.57;8.80;;;;;;;5.65;85.33;100244.14;1633391;85;21387;-78
2022/12/30 03:50:13;;;;;;;15.73;9.23;;;;;;;5.63;85.32;100235.54;1633055;85;21981;-78
2022/12/30 03:52:40;;;;;;;14.20;8.23;;;;;;;5.61;85.39;100234.70;1633411;87;22234;-82
2022/12/30 03:55:07;;;;;;;13.23;7.63;;;;;;;5.59;85.50;100243.37;1633206;85;21897;-78
2022/12/30 03:57:36;;;;;;;13.97;8.00;;;;;;;5.59;85.55;100253.77;1647109;85;21089;-78
2022/12/30 04:00:08;;;;;;;14.00;7.90;;;;;;;5.60;85.70;100257.25;1633199;87;21117;-77
2022/12/30 04:02:37;;;;;;;13.13;7.97;;;;;;;5.63;85.76;100262.39;1632990;85;21504;-77
2022/12/30 04:05:07;;;;;;;13.30;7.47;;;;;;;5.65;85.88;100258.44;1633425;85;21468;-77
2022/12/30 04:07:34;;;;;;;13.28;6.72;;;;;;;5.66;85.94;100269.28;1633528;85;21090;-83
2022/12/30 04:10:03;;;;;;;12.97;7.53;;;;;;;5.69;86.03;100275.72;1633197;85;21507;-81
2022/12/30 04:12:31;;;;;;;14.60;7.63;;;;;;;5.71;86.16;100274.80;1633098;87;21085;-77
2022/12/30 04:14:58;;;;;;;12.30;7.70;;;;;;;5.73;86.19;100274.31;1650888;86;21148;-81
2022/12/30 04:17:25;;;;;;;12.90;6.60;;;;;;;5.77;86.20;100268.63;1633086;85;21061;-78
2022/12/30 04:19:52;;;;;;;11.30;6.83;;;;;;;5.79;86.22;100272.03;1633180;85;21451;-80
2022/12/30 04:22:19;;;;;;;10.60;6.37;;;;;;;5.82;86.32;100278.50;1633132;87;21467;-78
2022/12/30 04:24:46;;;;;;;11.27;6.20;;;;;;;5.84;86.30;100281.06;1633940;85;21022;-77
2022/12/30 04:27:13;;;;;;;8.63;5.07;;;;;;;5.87;86.39;100288.80;1646304;86;21117;-78
2022/12/30 04:29:40;;;;;;;13.60;6.13;;;;;;;5.96;86.67;100285.62;1630809;85;21003;-79
2022/12/30 04:32:07;;;;;;;11.20;5.20;;;;;;;6.04;86.69;100293.25;1620091;87;21058;-78
2022/12/30 04:34:34;;;;;;;11.33;5.33;;;;;;;6.11;86.70;100293.55;1633229;85;21018;-78
2022/12/30 04:37:01;;;;;;;7.97;3.97;;;;;;;6.15;86.62;100299.13;1633156;87;21053;-78
2022/12/30 04:39:28;;;;;;;7.50;4.10;;;;;;;6.22;86.58;100306.34;1633341;87;21704;-78
2022/12/30 04:41:55;;;;;;;6.60;3.27;;;;;;;6.31;86.69;100308.75;1645546;86;21063;-77
2022/12/30 04:44:22;;;;;;;5.13;2.57;;;;;;;6.39;86.72;100304.23;1647555;85;21008;-77
2022/12/30 04:46:49;;;;;;;4.27;1.90;;;;;;;6.51;86.80;100307.46;1647106;87;21078;-78
2022/12/30 04:49:16;;;;;;;5.20;1.67;;;;;;;6.67;86.99;100305.78;1647539;85;21360;-78
2022/12/30 04:51:43;;;;;;;5.20;1.50;;;;;;;6.83;86.84;100312.81;1654433;85;21131;-82
2022/12/30 04:54:10;;;;;;;4.70;1.30;;;;;;;7.05;86.84;100307.95;1647255;85;21134;-78
2022/12/30 04:56:37;;;;;;;6.50;1.30;;;;;;;7.24;86.59;100308.37;1646540;85;21569;-81
2022/12/30 04:59:04;;;;;;;4.17;1.10;;;;;;;7.43;86.20;100310.07;1647047;87;21079;-82
2022/12/30 05:01:31;;;;;;;4.57;1.33;;;;;;;7.55;85.68;100318.87;1643134;85;21110;-79
2022/12/30 05:03:58;;;;;;;3.20;1.10;;;;;;;7.66;85.47;100326.42;1650033;85;21102;-78
2022/12/30 05:06:25;;;;;;;4.13;1.20;;;;;;;7.79;84.95;100322.59;1646943;87;21139;-83
2022/12/30 05:08:52;;;;;;;5.97;1.40;;;;;;;7.86;84.44;100331.10;1647327;85;21059;-83
2022/12/30 05:11:19;;;;;;;4.43;1.40;;;;;;;7.90;84.04;100339.27;1647252;85;21462;-78
2022/12/30 05:13:46;;;;;;;2.83;1.00;;;;;;;7.94;83.78;100345.26;1645515;85;21088;-82
2022/12/30 05:16:14;;;;;;;4.50;1.07;;;;;;;7.97;83.40;100346.02;1654752;84;21573;-79
2022/12/30 05:18:41;;;;;;;6.77;1.13;;;;;;;7.99;83.22;100346.84;1646310;84;21044;-80
2022/12/30 05:21:08;;;;;;;2.23;0.90;;;;;;;7.99;82.92;100350.77;1644784;85;21639;-81
2022/12/30 05:26:16;;;;;;;4.30;1.30;;;;;;;7.99;82.58;100358.59;1633660;86;21028;-79
2022/12/30 05:28:45;;;;;;;6.00;1.20;;;;;;;8.01;82.32;100357.26;1647183;85;21133;-79
2022/12/30 05:31:17;;;;;;;5.28;1.20;;;;;;;8.02;82.04;100362.87;1658805;85;21051;-81
2022/12/30 05:33:45;;;;;;;4.93;1.00;;;;;;;8.00;81.70;100371.19;1648339;85;21087;-83
2022/12/30 05:36:14;;;;;;;3.40;1.03;;;;;;;7.96;81.46;100378.25;1653368;85;21016;-78
2022/12/30 05:38:41;;;;;;;4.07;0.93;;;;;;;7.95;81.32;100375.24;1647475;85;21050;-79
2022/12/30 05:41:10;;;;;;;2.97;0.93;;;;;;;7.91;81.02;100382.73;1641592;86;22215;-79
2022/12/30 05:43:37;;;;;;;2.17;0.87;;;;;;;7.87;80.85;100382.42;1632986;85;21564;-78
2022/12/30 05:46:06;;;;;;;5.58;1.05;;;;;;;7.83;80.75;100394.66;1632744;87;21272;-79
2022/12/30 05:48:33;;;;;;;3.70;0.90;;;;;;;7.79;80.66;100395.66;1651134;86;21061;-78
2022/12/30 05:51:00;;;;;;;3.67;1.23;;;;;;;7.78;80.56;100411.34;1649815;85;21011;-78
2022/12/30 05:53:27;;;;;;;5.17;0.70;;;;;;;7.76;80.39;100411.39;1636035;86;21149;-81
2022/12/30 05:55:55;;;;;;;2.97;0.70;;;;;;;7.72;80.30;100411.05;1633365;87;21053;-79
2022/12/30 05:58:22;;;;;;;2.67;0.77;;;;;;;7.70;80.23;100419.34;1633184;87;21042;-80
2022/12/30 06:00:49;;;;;;;5.33;1.27;;;;;;;7.67;80.17;100429.86;1633282;87;21075;-81
2022/12/30 06:03:17;;;;;;;4.67;0.87;;;;;;;7.64;80.06;100423.42;1633283;85;21078;-82
2022/12/30 06:05:44;;;;;;;4.33;1.10;;;;;;;7.63;80.00;100433.91;1633120;87;21152;-86
2022/12/30 06:08:11;;;;;;;4.60;0.93;;;;;;;7.60;79.91;100433.08;1632372;85;21073;-78
2022/12/30 06:10:38;;;;;;;6.40;2.70;;;;;;;7.56;79.82;100430.58;1631791;85;21118;-85
2022/12/30 06:13:05;;;;;;;2.70;0.80;;;;;;;7.55;79.80;100431.48;1633384;85;21475;-78
2022/12/30 06:15:32;;;;;;;5.43;1.03;;;;;;;7.53;79.71;100438.47;1633142;85;21574;-76
2022/12/30 06:17:59;;;;;;;3.80;0.90;;;;;;;7.48;79.56;100438.61;1633376;85;21125;-82
2022/12/30 06:20:26;;;;;;;4.30;1.10;;;;;;;7.44;79.50;100434.80;1640874;85;21615;-77
2022/12/30 06:22:53;;;;;;;4.27;0.90;;;;;;;7.42;79.47;100441.33;1636175;85;21002;-77
2022/12/30 06:25:20;;;;;;;4.90;1.07;;;;;;;7.38;79.34;100442.31;1639641;86;21074;-77
2022/12/30 06:27:47;;;;;;;5.50;1.70;;;;;;;7.33;79.31;100442.86;1633160;85;21566;-77
2022/12/30 06:30:15;;;;;;;5.93;1.40;;;;;;;7.26;79.21;100447.37;1633502;87;21119;-77
2022/12/30 06:32:42;;;;;;;6.97;0.90;;;;;;;7.22;79.26;100453.53;1632933;87;21496;-76
2022/12/30 06:35:10;;;;;;;4.20;0.70;;;;;;;7.18;79.26;100455.80;1633387;85;21121;-77
2022/12/30 06:37:38;;;;;;;5.10;0.83;;;;;;;7.15;79.36;100452.81;1633882;85;21074;-82
2022/12/30 06:40:07;;;;;;;4.73;0.93;;;;;;;7.13;79.35;100453.74;1647892;86;21554;-77
2022/12/30 06:42:34;;;;;;;5.33;0.80;;;;;;;7.11;79.39;100459.42;1635373;85;21124;-77
2022/12/30 06:45:01;;;;;;;4.23;1.20;;;;;;;7.07;79.42;100462.55;1630896;87;21532;-77
2022/12/30 06:47:30;;;;;;;7.37;1.33;;;;;;;7.04;79.32;100466.95;1630686;88;21572;-77
2022/12/30 06:50:01;;;;;;;5.93;2.13;;;;;;;6.99;79.35;100460.55;1630448;87;21094;-77
2022/12/30 06:52:28;;;;;;;11.90;4.30;;;;;;;6.97;79.36;100466.23;1630653;87;21069;-77
2022/12/30 06:54:55;;;;;;;15.30;6.37;;;;;;;6.93;79.28;100465.91;1630935;87;21116;-78
2022/12/30 06:57:22;;;;;;;8.80;2.47;;;;;;;6.86;79.19;100467.76;1628467;87;21461;-77
2022/12/30 06:59:49;;;;;;;6.67;1.87;;;;;;;6.79;79.17;100470.09;1637285;86;21471;-78
2022/12/30 07:02:16;;;;;;;7.43;2.00;;;;;;;6.72;79.19;100480.21;1628397;87;21061;-74
2022/12/30 07:04:43;;;;;;;7.87;1.60;;;;;;;6.65;79.07;100486.42;1630516;88;21102;-76
2022/12/30 07:07:11;;;;;;;7.13;2.00;;;;;;;6.57;79.19;100500.03;1630619;86;21357;-79
2022/12/30 07:09:38;;;;;;;6.47;2.60;;;;;;;6.48;79.07;100496.74;1628071;88;21058;-78
2022/12/30 07:12:05;;;;;;;11.20;6.30;;;;;;;6.39;78.95;100508.61;1629068;87;21031;-78
2022/12/30 07:14:33;;;;;;;7.70;2.40;;;;;;;6.22;78.81;100507.61;1631086;86;21305;-85
2022/12/30 07:17:04;;;;;;;7.23;1.63;;;;;;;6.14;79.08;100521.19;1629796;86;21443;-81
2022/12/30 07:19:29;;;;;;;7.07;1.90;;;;;;;6.08;79.26;100524.36;1630310;88;22174;-79
2022/12/30 07:22:03;;;;;;;6.27;2.30;;;;;;;6.01;79.47;100532.27;1625037;87;21042;-78
2022/12/30 07:24:30;;;;;;;6.53;2.47;;;;;;;5.97;79.71;100533.19;1613352;87;21480;-74
2022/12/30 07:26:57;;;;;;;9.20;2.50;;;;;;;5.95;79.96;100528.44;1626468;86;21042;-77
2022/12/30 07:29:24;;;;;;;10.37;3.83;;;;;;;5.95;80.10;100521.93;1624012;87;21010;-74
2022/12/30 07:31:51;;;;;;;6.23;1.70;;;;;;;5.95;80.13;100536.24;1624112;86;21974;-75
2022/12/30 07:34:18;;;;;;;6.60;1.57;;;;;;;5.95;80.41;100537.55;1630097;88;21060;-75
2022/12/30 07:36:45;;;;;;;5.67;1.60;;;;;;;6.01;80.69;100537.47;1630708;87;21030;-76
2022/12/30 07:39:13;;;;;;;5.57;1.13;;;;;;;6.14;80.94;100545.91;1630866;86;21632;-74
2022/12/30 07:41:40;;;;;;;3.70;1.07;;;;;;;6.27;80.92;100547.88;1627015;86;21032;-75
2022/12/30 07:44:09;;;;;;;4.63;1.03;;;;;;;6.37;80.87;100555.08;1643199;85;21157;-81
2022/12/30 07:46:36;;;;;;;5.47;1.63;;;;;;;6.47;80.78;100559.25;1638624;85;21130;-76
2022/12/30 07:49:04;;;;;;;5.13;1.10;;;;;;;6.55;80.61;100557.37;1645411;87;21027;-81
2022/12/30 07:51:31;;;;;;;5.57;1.07;;;;;;;6.63;80.54;100565.91;1638239;86;21059;-75
2022/12/30 07:53:58;;;;;;;4.37;0.83;;;;;;;6.70;80.29;100558.83;1642214;85;21079;-79
2022/12/30 07:56:26;;;;;;;5.33;1.40;;;;;;;6.75;80.09;100569.17;1628138;87;21150;-77
2022/12/30 07:58:54;;;;;;;4.70;1.20;;;;;;;6.79;80.05;100569.52;1647166;85;21053;-76
2022/12/30 08:01:21;;;;;;;3.87;1.30;;;;;;;6.86;79.90;100577.19;1647235;85;21107;-73
2022/12/30 08:03:49;;;;;;;4.83;1.17;;;;;;;6.93;79.73;100580.11;1647105;85;21521;-76
2022/12/30 08:06:18;;;;;;;6.70;1.30;;;;;;;6.99;79.61;100583.48;1647280;87;21012;-74
2022/12/30 08:08:46;;;;;;;5.67;1.50;;;;;;;7.04;79.47;100584.23;1647326;87;21211;-73
2022/12/30 08:11:15;;;;;;;5.77;1.40;;;;;;;7.09;79.31;100587.16;1628692;85;21074;-74
2022/12/30 08:13:44;;;;;;;8.00;1.87;;;;;;;7.12;79.16;100591.04;1647456;85;21019;-77
2022/12/30 08:16:15;;;;;;;6.07;1.37;;;;;;;7.15;79.07;100598.80;1647109;85;21116;-80
2022/12/30 08:18:43;;;;;;;4.43;1.57;;;;;;;7.22;78.99;100613.00;1647395;87;21067;-82
2022/12/30 08:21:16;;;;;;;5.47;1.13;;;;;;;7.26;78.89;100612.04;1647340;87;21816;-83
2022/12/30 08:23:46;;;;;;;3.37;0.90;;;;;;;7.31;78.82;100620.19;1647358;85;21537;-79
2022/12/30 08:26:18;;;;;;;6.10;1.40;;;;;;;7.35;78.65;100617.94;1647403;85;28746;-81
2022/12/30 08:28:46;;;;;;;5.03;1.07;;;;;;;7.38;78.47;100631.37;1647087;86;21086;-81
2022/12/30 08:31:17;;;;;;;5.87;1.30;;;;;;;7.44;78.35;100623.86;1647168;85;21071;-79
2022/12/30 08:33:44;;;;;;;5.70;0.97;;;;;;;7.47;78.30;100636.84;1647377;87;21103;-78
2022/12/30 08:36:15;;;;;;;6.33;1.20;;;;;;;7.50;78.13;100630.25;1647150;85;21517;-73
2022/12/30 08:38:50;;;;;;;6.43;1.20;;;;;;;7.52;77.96;100637.16;1647403;85;21078;-77
2022/12/30 08:41:34;;;;;;;5.70;1.17;;;;;;;7.55;77.86;100633.63;1647115;85;21075;-80
2022/12/30 08:44:04;;;;;;;4.50;0.80;;;;;;;7.58;77.78;100629.20;1647331;87;21043;-81
2022/12/30 08:46:34;;;;;;;3.52;0.90;;;;;;;7.62;77.59;100646.08;1647301;87;21132;-79
2022/12/30 08:49:03;;;;;;;6.40;1.17;;;;;;;7.66;77.54;100653.83;1647316;87;21545;-73
2022/12/30 08:51:32;;;;;;;5.90;1.50;;;;;;;7.73;77.50;100654.54;1647282;85;21062;-72
2022/12/30 08:54:00;;;;;;;4.33;1.10;;;;;;;7.78;77.46;100662.69;1647619;85;21040;-80
2022/12/30 08:56:32;;;;;;;3.27;1.00;;;;;;;7.87;77.35;100664.69;1647157;87;21059;-80
2022/12/30 08:59:01;;;;;;;3.97;0.97;;;;;;;7.95;77.24;100653.63;1647296;85;21467;-80
2022/12/30 09:01:34;;;;;;;4.63;1.10;;;;;;;8.05;77.25;100657.77;1647118;85;21074;-80
2022/12/30 09:04:03;;;;;;;3.83;0.80;;;;;;;8.16;77.01;100669.28;1647159;87;21107;-83
2022/12/30 09:06:31;;;;;;;4.03;0.93;;;;;;;8.26;76.89;100669.03;1647316;87;21016;-82
2022/12/30 09:09:01;;;;;;;4.97;1.20;;;;;;;8.38;76.71;100665.72;1647496;85;21699;-83
2022/12/30 09:11:34;;;;;;;7.47;1.30;;;;;;;8.48;76.67;100665.95;1647226;87;21146;-80
2022/12/30 09:14:06;;;;;;;4.77;1.00;;;;;;;8.56;76.03;100659.21;1647354;85;21028;-82
2022/12/30 09:16:35;;;;;;;4.13;1.00;;;;;;;8.65;75.93;100666.39;1647066;87;21537;-80
2022/12/30 09:19:03;;;;;;;5.00;1.23;;;;;;;8.70;75.64;100661.03;1647255;87;21021;-79
2022/12/30 09:21:34;;;;;;;4.43;1.10;;;;;;;8.79;75.57;100675.64;1646435;87;21055;-84
2022/12/30 09:24:02;;;;;;;5.28;1.20;;;;;;;8.88;75.28;100685.86;1641440;85;22123;-84
2022/12/30 09:26:31;;;;;;;4.85;1.00;;;;;;;8.95;75.10;100687.40;1633971;84;21090;-82
2022/12/30 09:28:59;;;;;;;4.10;1.20;;;;;;;9.05;74.84;100690.66;1650581;85;21074;-83
2022/12/30 09:31:31;;;;;;;3.67;1.10;;;;;;;9.16;74.57;100699.92;1639912;85;21513;-78
2022/12/30 09:33:59;;;;;;;5.47;1.07;;;;;;;9.24;74.39;100694.95;1651620;85;21648;-81
2022/12/30 09:36:26;;;;;;;4.70;0.93;;;;;;;9.36;74.33;100699.38;1641143;86;21147;-81
2022/12/30 09:38:54;;;;;;;4.00;1.03;;;;;;;9.47;74.07;100703.02;1657490;85;21146;-82
2022/12/30 09:44:51;;;;;;;5.30;1.40;;;;;;;9.70;73.61;100704.13;1635326;85;21541;-79
2022/12/30 09:47:37;;;;;;;3.20;1.07;;;;;;;9.81;73.35;100697.70;1639403;85;21065;-83
2022/12/30 09:50:10;;;;;;;3.22;1.00;;;;;;;9.87;72.62;100695.36;1604643;88;21120;-81
2022/12/30 09:52:56;;;;;;;3.20;1.07;;;;;;;9.96;72.56;100687.22;1588032;88;21139;-77
2022/12/30 09:56:12;;;;;;;5.75;1.02;;;;;;;10.06;72.41;100693.05;1585476;88;21101;-76
2022/12/30 09:58:09;;;;;;;5.33;0.95;;;;;;;10.15;72.08;100691.91;1540404;89;21524;-79
2022/12/30 10:00:37;;;;;;;4.50;1.10;;;;;;;10.29;71.92;100694.14;1588826;89;21121;-80
2022/12/30 10:03:21;;;;;;;6.95;1.60;;;;;;;10.37;71.65;100679.04;1587662;88;21166;-82
2022/12/30 10:06:22;;;;;;;4.95;1.12;;;;;;;10.51;71.49;100677.28;1587314;89;21145;-80
2022/12/30 10:09:04;;;;;;;6.17;1.62;;;;;;;10.62;71.28;100672.09;1588834;88;21117;-80
2022/12/30 10:12:02;;;;;;;5.97;1.50;;;;;;;10.70;71.02;100666.60;1589460;88;21606;-81
2022/12/30 10:14:58;;;;;;;4.50;1.20;;;;;;;10.85;71.10;100666.07;1585356;89;21138;-77
2022/12/30 10:17:55;;;;;;;5.10;1.47;;;;;;;11.03;70.93;100658.47;1587575;89;21202;-77
2022/12/30 10:20:43;;;;;;;3.75;1.10;;;;;;;11.28;70.75;100651.47;1603495;87;21107;-78
2022/12/30 10:23:24;;;;;;;5.03;1.50;;;;;;;11.50;70.61;100656.80;1588434;88;21113;-78
2022/12/30 10:26:17;;;;;;;4.55;1.20;;;;;;;11.63;70.28;100653.70;1587130;88;21145;-79
2022/12/30 10:28:59;;;;;;;4.67;1.02;;;;;;;11.69;69.72;100650.84;1587745;89;21109;-79
2022/12/30 10:31:32;;;;;;;4.10;1.00;;;;;;;11.83;69.43;100657.73;1589929;88;21342;-77
2022/12/30 10:34:16;;;;;;;4.22;1.15;;;;;;;11.94;69.12;100663.47;1591030;88;21169;-82
2022/12/30 10:37:07;;;;;;;5.22;1.07;;;;;;;11.98;68.53;100672.11;1589734;88;21105;-79
2022/12/30 10:39:38;;;;;;;4.35;1.30;;;;;;;11.95;67.98;100664.35;1590317;88;21487;-81
2022/12/30 10:42:31;;;;;;;8.23;1.75;;;;;;;12.01;67.91;100652.28;1588047;88;21663;-80
2022/12/30 10:45:43;;;;;;;6.47;1.45;;;;;;;12.04;68.01;100642.97;1590365;87;21576;-79
2022/12/30 10:48:25;;;;;;;6.78;2.05;;;;;;;12.05;67.15;100653.86;1577805;88;21110;-79
2022/12/30 10:50:53;;;;;;;4.22;1.50;;;;;;;12.10;67.14;100648.44;1577463;89;21097;-79
2022/12/30 10:53:25;;;;;;;5.03;1.15;;;;;;;12.19;66.81;100649.38;1576974;89;21124;-79
2022/12/30 10:55:59;;;;;;;4.45;1.27;;;;;;;12.22;66.44;100637.00;1577089;89;21078;-79
2022/12/30 10:58:46;;;;;;;5.50;1.15;;;;;;;12.34;66.23;100641.36;1577766;89;21158;-79
2022/12/30 11:01:31;;;;;;;7.75;1.32;;;;;;;12.40;66.19;100635.84;1576736;89;21058;-79
2022/12/30 11:03:59;;;;;;;4.55;1.30;;;;;;;12.47;65.47;100632.03;1576289;89;21106;-78
2022/12/30 11:06:36;;;;;;;4.15;1.10;;;;;;;12.46;65.13;100642.16;1576917;89;20932;-77
2022/12/30 11:09:19;;;;;;;8.03;1.52;;;;;;;12.50;65.23;100635.41;1577463;89;21118;-89
2022/12/30 11:14:43;;;;;;;5.30;1.05;;;;;;;12.71;64.41;100630.16;1576827;90;21115;-88
2022/12/30 11:17:25;;;;;;;4.50;1.20;;;;;;;12.65;64.04;100621.22;1576938;90;21114;-83
2022/12/30 11:20:04;;;;;;;4.12;1.27;;;;;;;12.79;64.41;100618.86;1576548;90;21065;-81
2022/12/30 11:22:31;;;;;;;2.50;1.00;;;;;;;13.01;64.54;100615.31;1574873;90;21099;-79
2022/12/30 11:25:04;;;;;;;5.35;1.67;;;;;;;13.71;63.12;100613.46;1577079;89;21296;-80
2022/12/30 11:27:42;;;;;;;6.17;2.67;;;;;;;13.82;62.31;100610.33;1576867;89;21610;-80
2022/12/30 11:30:35;;;;;;;4.15;1.15;;;;;;;13.82;62.31;100610.33;1577223;90;21095;-81
2022/12/30 11:33:06;;;;;;;6.47;1.77;;;;;;;14.08;61.93;100611.74;1569313;89;21584;-81
2022/12/30 11:35:46;;;;;;;9.10;2.60;;;;;;;14.45;62.22;100616.05;1576106;90;21075;-81
2022/12/30 11:38:33;;;;;;;8.97;2.30;;;;;;;14.64;61.34;100619.13;1577079;90;21131;-81
2022/12/30 11:41:24;;;;;;;5.42;2.25;;;;;;;14.47;60.15;100617.31;1576943;90;21615;-81
2022/12/30 11:44:03;;;;;;;5.15;1.65;;;;;;;14.62;60.44;100618.34;1578812;88;21117;-75
2022/12/30 11:46:44;;;;;;;5.35;1.72;;;;;;;14.81;60.07;100609.03;1601226;89;21153;-82
2022/12/30 11:49:34;;;;;;;6.40;1.60;;;;;;;14.75;59.40;100615.95;1656307;86;21079;-81
2022/12/30 11:52:10;;;;;;;5.72;1.50;;;;;;;14.53;59.39;100620.14;1655996;86;21944;-81
2022/12/30 11:54:54;;;;;;;7.47;3.08;;;;;;;14.23;59.29;100629.44;1656084;86;21583;-76
2022/12/30 11:57:41;;;;;;;7.45;2.75;;;;;;;14.08;59.28;100630.63;1654888;86;21058;-72
2022/12/30 12:00:22;;;;;;;7.95;3.67;;;;;;;13.72;59.31;100618.30;1656129;84;21484;-74
2022/12/30 12:03:02;;;;;;;8.03;3.42;;;;;;;13.75;59.52;100612.88;1655936;86;21324;-73
2022/12/30 12:05:39;;;;;;;9.23;4.50;;;;;;;13.75;59.52;100612.88;1655313;84;21885;-75
2022/12/30 12:08:28;;;;;;;7.87;3.47;;;;;;;13.87;59.77;100614.08;1655997;84;21059;-75
2022/12/30 12:11:07;;;;;;;7.80;1.40;;;;;;;13.95;59.69;100604.02;1655622;84;22364;-75
2022/12/30 12:13:52;;;;;;;4.55;1.62;;;;;;;14.07;59.78;100602.11;1655782;84;21086;-75
2022/12/30 12:16:44;;;;;;;4.10;1.40;;;;;;;14.21;59.51;100585.62;1654888;86;21633;-74
2022/12/30 12:19:24;;;;;;;5.22;1.47;;;;;;;14.21;59.51;100585.62;1618347;88;21246;-76
2022/12/30 12:21:55;;;;;;;5.97;1.67;;;;;;;14.11;59.21;100587.02;1653190;86;21062;-76
2022/12/30 12:24:39;;;;;;;2.62;1.40;;;;;;;14.10;59.06;100590.56;1654015;84;21081;-78
2022/12/30 12:27:17;;;;;;;8.45;1.70;;;;;;;14.02;58.99;100589.61;1656465;86;21088;-77
2022/12/30 12:29:45;;;;;;;5.22;1.70;;;;;;;13.90;58.82;100592.38;1655853;86;21058;-82
2022/12/30 12:32:50;;;;;;;8.48;1.75;;;;;;;13.75;58.66;100594.44;1654889;86;21963;-81
2022/12/30 12:35:44;;;;;;;4.28;1.50;;;;;;;13.64;58.76;100588.35;1617299;88;21104;-80
2022/12/30 12:38:55;;;;;;;5.12;1.50;;;;;;;13.40;58.55;100587.70;1607227;84;21087;-79
2022/12/30 12:42:01;;;;;;;6.40;1.67;;;;;;;13.05;58.51;100585.30;1651461;86;21090;-79
2022/12/30 12:45:07;;;;;;;8.03;2.10;;;;;;;12.80;59.13;100592.94;1633834;85;21173;-76
2022/12/30 12:48:13;;;;;;;7.87;2.25;;;;;;;12.61;59.19;100595.53;1595677;89;21075;-76
2022/12/30 12:50:55;;;;;;;4.47;1.40;;;;;;;12.40;59.15;100592.47;1596609;87;21063;-78